Time;durP1;ratioP1;P1;durP2;ratioP2;P2;SDS_P1;SDS_P2;PMS_P1;PMS_P2;Temp;Humidity;BMP_temperature;BMP_pressure;BME280_temperature;BME280_humidity;BME280_pressure;Samples;Min_cycle;Max_cycle;Signal;HPM_P1;HPM_P2
2023/01/14 00:01:35;;;;;;;29.83;7.53;;;4.00;99.90;;;;;;4953747;28;20054;-85
2023/01/14 00:04:02;;;;;;;32.47;7.80;;;4.00;99.90;;;;;;4953366;28;20034;-85
2023/01/14 00:06:30;;;;;;;25.20;5.53;;;4.00;99.90;;;;;;4968792;28;20089;-85
2023/01/14 00:08:58;;;;;;;47.13;6.63;;;4.00;99.90;;;;;;4969598;28;20038;-85
2023/01/14 00:14:09;;;;;;;28.48;6.38;;;4.00;99.90;;;;;;4969568;28;20042;-85
2023/01/14 00:16:35;;;;;;;30.90;5.18;;;4.00;99.90;;;;;;4953453;28;20045;-85
2023/01/14 00:19:01;;;;;;;29.55;6.50;;;4.00;99.90;;;;;;4953064;28;20057;-85
2023/01/14 00:21:26;;;;;;;36.17;5.63;;;4.00;99.90;;;;;;4953288;28;20031;-85
2023/01/14 00:23:53;;;;;;;35.42;6.30;;;4.00;99.90;;;;;;4953142;28;20116;-86
2023/01/14 00:26:19;;;;;;;33.20;4.95;;;4.00;99.90;;;;;;4968897;28;20039;-85
2023/01/14 00:28:48;;;;;;;26.75;5.40;;;3.90;99.90;;;;;;4953120;28;20482;-85
2023/01/14 00:31:28;;;;;;;32.15;5.30;;;4.00;99.90;;;;;;4970413;28;20436;-85
2023/01/14 00:33:55;;;;;;;23.98;4.65;;;4.00;99.90;;;;;;4956136;28;20555;-85
2023/01/14 00:36:24;;;;;;;37.63;5.90;;;4.00;99.90;;;;;;4972473;28;20085;-84
2023/01/14 00:38:53;;;;;;;28.80;5.57;;;3.90;99.90;;;;;;4956655;28;20478;-85
2023/01/14 00:41:21;;;;;;;43.00;7.38;;;3.90;99.90;;;;;;4956105;28;20035;-85
2023/01/14 00:43:49;;;;;;;46.97;6.97;;;3.90;99.90;;;;;;4956245;28;20421;-85
2023/01/14 00:46:21;;;;;;;42.42;10.27;;;3.90;99.90;;;;;;4956289;28;20125;-85
2023/01/14 00:48:48;;;;;;;30.88;8.88;;;3.90;99.90;;;;;;4955917;28;20710;-85
2023/01/14 00:51:16;;;;;;;43.55;6.65;;;3.90;99.90;;;;;;4955393;28;20038;-84
2023/01/14 00:53:42;;;;;;;51.33;11.95;;;3.90;99.90;;;;;;5074023;28;20512;-84
2023/01/14 00:56:09;;;;;;;32.30;7.10;;;3.80;99.90;;;;;;4956089;28;20035;-85
2023/01/14 00:58:35;;;;;;;43.72;5.95;;;3.90;99.90;;;;;;5074255;28;20582;-84
2023/01/14 01:01:01;;;;;;;38.63;8.05;;;3.80;99.90;;;;;;4972192;28;20101;-85
2023/01/14 01:03:27;;;;;;;38.70;10.93;;;3.80;99.90;;;;;;4955834;28;20118;-85
2023/01/14 01:05:53;;;;;;;37.85;5.85;;;3.80;99.90;;;;;;4955814;28;20489;-85
2023/01/14 01:08:21;;;;;;;24.80;6.70;;;3.80;99.90;;;;;;4955986;28;20035;-85
2023/01/14 01:10:50;;;;;;;30.77;9.00;;;3.70;99.90;;;;;;4956110;28;20480;-84
2023/01/14 01:13:16;;;;;;;30.35;8.98;;;3.70;99.90;;;;;;4955905;28;20130;-85
2023/01/14 01:15:42;;;;;;;31.60;6.57;;;3.70;99.90;;;;;;4955962;28;20156;-85
2023/01/14 01:18:10;;;;;;;31.88;5.97;;;3.70;99.90;;;;;;4972294;28;20065;-85
2023/01/14 01:20:36;;;;;;;28.55;6.82;;;3.70;99.90;;;;;;4956063;28;20045;-85
2023/01/14 01:23:02;;;;;;;40.95;7.45;;;3.70;99.90;;;;;;4972208;28;20035;-85
2023/01/14 01:25:28;;;;;;;30.52;6.10;;;3.60;99.90;;;;;;4955886;28;20042;-85
2023/01/14 01:27:55;;;;;;;39.20;8.82;;;3.60;99.90;;;;;;4956186;28;20042;-85
2023/01/14 01:30:22;;;;;;;42.00;8.15;;;3.60;99.90;;;;;;4955926;28;20160;-84
2023/01/14 01:32:48;;;;;;;33.00;6.10;;;3.60;99.90;;;;;;4955760;28;20137;-85
2023/01/14 01:35:13;;;;;;;34.08;6.50;;;3.50;99.90;;;;;;4971759;28;20031;-85
2023/01/14 01:37:39;;;;;;;40.45;7.57;;;3.50;99.90;;;;;;4955453;28;20042;-85
2023/01/14 01:40:06;;;;;;;28.75;7.35;;;3.50;99.90;;;;;;4955650;28;20039;-85
2023/01/14 01:42:33;;;;;;;39.90;6.10;;;3.50;99.90;;;;;;4955804;28;20041;-86
2023/01/14 01:45:32;;;;;;;38.90;6.78;;;3.50;99.90;;;;;;4956025;28;20073;-85
2023/01/14 01:48:04;;;;;;;40.90;8.02;;;3.60;99.90;;;;;;5056887;28;20038;-85
2023/01/14 01:50:30;;;;;;;26.27;5.63;;;3.60;99.90;;;;;;4956016;28;20038;-85
2023/01/14 01:52:57;;;;;;;27.58;6.18;;;3.50;99.90;;;;;;4955948;28;20768;-85
2023/01/14 01:55:24;;;;;;;31.00;6.47;;;3.50;99.90;;;;;;4955851;28;20058;-85
2023/01/14 01:57:55;;;;;;;34.75;5.85;;;3.50;99.90;;;;;;4971887;28;20035;-85
2023/01/14 02:00:23;;;;;;;35.58;6.00;;;3.60;99.90;;;;;;4955441;28;20760;-85
2023/01/14 02:02:52;;;;;;;37.10;6.05;;;3.60;99.90;;;;;;5073022;28;20038;-85
2023/01/14 02:05:18;;;;;;;34.95;6.20;;;3.60;99.90;;;;;;4955317;28;20031;-86
2023/01/14 02:07:44;;;;;;;44.63;6.13;;;3.60;99.90;;;;;;4971457;28;20038;-85
2023/01/14 02:10:11;;;;;;;28.27;5.43;;;3.60;99.90;;;;;;4955535;28;20811;-85
2023/01/14 02:13:20;;;;;;;30.55;5.40;;;3.50;99.90;;;;;;4955388;28;20027;-84
2023/01/14 02:16:09;;;;;;;29.55;5.68;;;3.40;99.90;;;;;;4999462;28;20048;-84
2023/01/14 02:18:47;;;;;;;46.72;5.10;;;3.40;99.90;;;;;;5032044;28;20022;-85
2023/01/14 02:21:20;;;;;;;30.95;5.07;;;3.30;99.90;;;;;;4997580;28;20035;-85
2023/01/14 02:24:13;;;;;;;37.95;5.30;;;3.30;99.90;;;;;;4955100;28;20037;-85
2023/01/14 02:27:16;;;;;;;40.85;6.10;;;3.30;99.90;;;;;;4954947;28;20054;-85
2023/01/14 02:29:48;;;;;;;52.35;6.25;;;3.40;99.90;;;;;;5055992;28;20038;-85
2023/01/14 02:32:39;;;;;;;42.10;5.30;;;3.40;99.90;;;;;;4955222;28;20038;-85
2023/01/14 02:35:05;;;;;;;39.60;5.28;;;3.40;99.90;;;;;;4955132;28;20038;-85
2023/01/14 02:37:41;;;;;;;26.90;5.07;;;3.50;99.90;;;;;;4970770;28;20031;-85
2023/01/14 02:40:14;;;;;;;21.58;5.25;;;3.50;99.90;;;;;;4954758;28;20497;-86
2023/01/14 02:45:41;;;;;;;25.02;5.55;;;3.40;99.90;;;;;;4971271;28;20122;-85
2023/01/14 02:48:08;;;;;;;45.90;6.65;;;3.40;99.90;;;;;;4954860;28;20031;-85
2023/01/14 02:50:37;;;;;;;23.00;5.10;;;3.30;99.90;;;;;;5072239;28;20077;-85
2023/01/14 02:53:17;;;;;;;39.17;5.63;;;3.30;99.90;;;;;;4954609;28;20371;-85
2023/01/14 02:55:42;;;;;;;30.20;5.03;;;3.20;99.90;;;;;;4955098;28;20031;-85
2023/01/14 02:58:28;;;;;;;46.20;5.95;;;3.20;99.90;;;;;;4955625;28;20079;-85
2023/01/14 03:01:15;;;;;;;48.03;6.50;;;3.20;99.90;;;;;;4954723;28;20027;-85
2023/01/14 03:04:01;;;;;;;41.10;7.63;;;3.20;99.90;;;;;;4955072;28;20034;-85
2023/01/14 03:06:48;;;;;;;44.38;7.30;;;3.20;99.90;;;;;;4955090;28;20485;-86
2023/01/14 03:09:26;;;;;;;47.05;6.60;;;3.20;99.90;;;;;;4955121;28;20035;-85
2023/01/14 03:12:04;;;;;;;33.17;5.70;;;3.20;99.90;;;;;;4954414;28;20396;-86
2023/01/14 03:14:55;;;;;;;38.60;5.60;;;3.20;99.90;;;;;;4969897;28;20027;-85
2023/01/14 03:17:55;;;;;;;23.30;6.57;;;3.20;99.90;;;;;;4970496;28;20062;-85
2023/01/14 03:20:32;;;;;;;24.33;6.07;;;3.10;99.90;;;;;;4955032;28;20031;-85
2023/01/14 03:23:03;;;;;;;32.65;5.32;;;3.20;99.90;;;;;;4954673;28;20493;-84
2023/01/14 03:25:32;;;;;;;27.23;5.43;;;3.20;99.90;;;;;;4954791;28;20045;-86
2023/01/14 03:28:05;;;;;;;57.05;6.60;;;3.20;99.90;;;;;;4955469;28;20033;-85
2023/01/14 03:30:37;;;;;;;45.25;7.25;;;3.20;99.90;;;;;;4970430;28;20762;-85
2023/01/14 03:33:10;;;;;;;39.15;6.68;;;3.20;99.90;;;;;;5072277;28;20027;-85
2023/01/14 03:35:42;;;;;;;36.33;6.05;;;3.20;99.90;;;;;;4954310;28;20057;-85
2023/01/14 03:38:31;;;;;;;23.48;5.05;;;3.10;99.90;;;;;;4953785;28;20031;-85
2023/01/14 03:40:59;;;;;;;31.40;5.93;;;3.10;99.90;;;;;;4953785;28;20035;-85
2023/01/14 03:43:44;;;;;;;46.03;6.88;;;3.00;99.90;;;;;;4953522;28;20031;-85
2023/01/14 03:46:10;;;;;;;33.42;6.70;;;2.90;99.90;;;;;;4953527;28;20035;-85
2023/01/14 03:48:36;;;;;;;36.70;6.45;;;2.90;99.90;;;;;;5071147;28;20035;-85
2023/01/14 03:51:22;;;;;;;59.05;7.85;;;2.90;99.90;;;;;;4970101;28;20103;-85
2023/01/14 03:54:18;;;;;;;43.47;7.20;;;2.80;99.90;;;;;;5071318;28;20039;-85
2023/01/14 03:56:47;;;;;;;33.80;5.53;;;2.80;99.90;;;;;;4969422;28;20498;-85
2023/01/14 03:59:22;;;;;;;31.30;5.95;;;2.70;99.90;;;;;;4952994;28;20121;-85
2023/01/14 04:01:51;;;;;;;47.28;7.25;;;2.60;99.90;;;;;;4952477;28;20031;-85
2023/01/14 04:04:17;;;;;;;32.10;6.20;;;2.60;99.90;;;;;;4953164;28;20398;-85
2023/01/14 04:06:43;;;;;;;30.50;5.25;;;2.60;99.90;;;;;;4971331;28;20088;-85
2023/01/14 04:09:09;;;;;;;26.67;5.47;;;2.60;99.90;;;;;;4957085;28;20667;-85
2023/01/14 04:11:35;;;;;;;33.80;5.70;;;2.50;99.90;;;;;;4957359;28;20731;-85
2023/01/14 04:16:46;;;;;;;43.08;6.40;;;2.40;99.90;;;;;;4972983;28;20039;-85
2023/01/14 04:19:11;;;;;;;45.95;6.03;;;2.50;99.90;;;;;;4956942;28;20393;-84
2023/01/14 04:21:37;;;;;;;35.08;5.80;;;2.50;99.90;;;;;;4972878;28;20045;-85
2023/01/14 04:24:03;;;;;;;53.08;6.80;;;2.70;99.90;;;;;;4957018;28;20489;-85
2023/01/14 04:26:28;;;;;;;41.25;6.63;;;2.70;99.90;;;;;;4972829;28;20098;-85
2023/01/14 04:28:54;;;;;;;49.45;5.85;;;2.70;99.90;;;;;;4956364;28;20035;-85
2023/01/14 04:31:20;;;;;;;31.67;7.53;;;2.70;99.90;;;;;;4956413;28;20482;-85
2023/01/14 04:33:46;;;;;;;23.17;5.88;;;2.60;99.90;;;;;;4956335;28;20043;-85
2023/01/14 04:36:12;;;;;;;35.65;5.47;;;2.60;99.90;;;;;;4956480;28;20035;-85
2023/01/14 04:38:37;;;;;;;38.20;7.55;;;2.70;99.90;;;;;;4972749;28;20061;-85
2023/01/14 04:41:03;;;;;;;47.03;6.90;;;2.80;99.90;;;;;;4972827;28;20113;-85
2023/01/14 04:43:29;;;;;;;44.95;5.90;;;2.80;99.90;;;;;;4972586;28;20367;-85
2023/01/14 04:45:55;;;;;;;41.17;6.30;;;2.80;99.90;;;;;;4957199;28;20038;-85
2023/01/14 04:48:23;;;;;;;36.10;5.32;;;2.90;99.90;;;;;;4955908;28;20038;-85
2023/01/14 04:50:50;;;;;;;32.05;5.72;;;2.90;99.90;;;;;;4956197;28;20039;-85
2023/01/14 04:53:21;;;;;;;53.75;6.75;;;3.00;99.90;;;;;;4956093;28;20053;-85
2023/01/14 04:55:47;;;;;;;42.78;6.55;;;3.00;99.90;;;;;;4956065;28;20100;-85
2023/01/14 04:58:17;;;;;;;43.88;5.55;;;3.10;99.90;;;;;;4956383;28;20031;-85
2023/01/14 05:00:44;;;;;;;30.85;6.55;;;3.10;99.90;;;;;;5074468;28;20039;-85
2023/01/14 05:03:12;;;;;;;40.95;6.60;;;3.10;99.90;;;;;;4956285;28;20027;-86
2023/01/14 05:05:39;;;;;;;41.38;7.03;;;3.10;99.90;;;;;;5074299;28;20038;-85
2023/01/14 05:08:07;;;;;;;24.25;4.78;;;3.10;99.90;;;;;;4972487;28;20088;-85
2023/01/14 05:10:33;;;;;;;37.10;5.80;;;3.10;99.90;;;;;;5074131;28;20030;-86
2023/01/14 05:13:00;;;;;;;48.95;6.22;;;3.00;99.90;;;;;;4972477;28;20502;-85
2023/01/14 05:15:32;;;;;;;33.03;4.95;;;3.00;99.90;;;;;;4972666;28;20122;-85
2023/01/14 05:17:58;;;;;;;32.42;5.20;;;3.00;99.90;;;;;;4971922;28;20092;-85
2023/01/14 05:20:24;;;;;;;22.85;5.50;;;3.10;99.90;;;;;;4972401;28;20474;-85
2023/01/14 05:22:50;;;;;;;33.55;5.80;;;3.10;99.90;;;;;;4956200;28;20394;-85
2023/01/14 05:25:17;;;;;;;39.53;6.65;;;3.10;99.90;;;;;;4973314;28;20500;-85
2023/01/14 05:27:42;;;;;;;28.50;4.55;;;3.10;99.90;;;;;;4956525;28;20030;-85
2023/01/14 05:30:09;;;;;;;33.28;4.90;;;3.10;99.90;;;;;;4956343;28;20478;-86
2023/01/14 05:32:34;;;;;;;39.67;5.38;;;3.10;99.90;;;;;;4955708;28;20039;-85
2023/01/14 05:35:00;;;;;;;39.33;4.82;;;3.10;99.90;;;;;;4972000;28;20047;-85
2023/01/14 05:37:26;;;;;;;39.38;5.82;;;3.20;99.90;;;;;;4972234;28;20386;-85
2023/01/14 05:39:51;;;;;;;36.17;6.47;;;3.20;99.90;;;;;;4956040;28;20023;-86
2023/01/14 05:47:45;;;;;;;28.80;5.18;;;3.20;99.90;;;;;;4971907;28;20079;-85
2023/01/14 05:50:12;;;;;;;34.05;6.82;;;3.30;99.90;;;;;;4973148;28;20039;-86
2023/01/14 05:52:38;;;;;;;34.10;6.60;;;3.20;99.90;;;;;;4955634;28;20031;-85
2023/01/14 05:55:06;;;;;;;30.40;9.50;;;3.20;99.90;;;;;;4955645;28;20409;-85
2023/01/14 05:57:31;;;;;;;29.50;6.00;;;3.20;99.90;;;;;;4956165;28;20433;-85
2023/01/14 05:59:57;;;;;;;44.20;6.57;;;3.20;99.90;;;;;;4956085;28;20027;-85
2023/01/14 06:07:56;;;;;;;38.47;8.60;;;3.20;99.90;;;;;;4971337;28;20489;-85
2023/01/14 06:10:24;;;;;;;30.00;5.78;;;3.20;99.90;;;;;;4955349;28;20037;-85
2023/01/14 06:12:57;;;;;;;23.02;4.88;;;3.20;99.90;;;;;;4955372;28;20054;-85
2023/01/14 06:15:35;;;;;;;37.00;7.05;;;3.20;99.90;;;;;;4955508;28;20038;-85
2023/01/14 06:18:14;;;;;;;36.40;4.90;;;3.20;99.90;;;;;;4955289;28;20055;-85
2023/01/14 06:20:40;;;;;;;33.17;6.10;;;3.10;99.90;;;;;;4955105;28;20095;-85
2023/01/14 06:23:15;;;;;;;28.63;4.75;;;3.10;99.90;;;;;;4954090;28;20039;-85
2023/01/14 06:25:43;;;;;;;26.38;5.70;;;3.10;99.90;;;;;;4954449;28;20043;-85
2023/01/14 06:28:09;;;;;;;21.02;4.10;;;3.00;99.90;;;;;;4953708;28;20137;-86
2023/01/14 06:30:34;;;;;;;25.73;5.43;;;2.90;99.90;;;;;;4970655;28;20035;-85
2023/01/14 06:33:00;;;;;;;35.67;4.78;;;2.80;99.90;;;;;;4970762;28;20026;-85
2023/01/14 06:35:26;;;;;;;32.88;4.75;;;2.70;99.90;;;;;;4954706;28;20042;-85
2023/01/14 06:37:51;;;;;;;29.90;4.85;;;2.70;99.90;;;;;;4972400;28;20261;-85
2023/01/14 06:40:17;;;;;;;26.65;4.63;;;2.70;99.90;;;;;;4954824;28;20033;-85
2023/01/14 06:42:43;;;;;;;25.35;3.92;;;2.80;99.90;;;;;;4954840;28;20656;-85
2023/01/14 06:45:10;;;;;;;25.00;6.28;;;2.80;99.90;;;;;;4955344;28;20176;-85
2023/01/14 06:47:42;;;;;;;24.30;3.80;;;2.80;99.90;;;;;;4955107;28;20087;-86
2023/01/14 06:50:08;;;;;;;24.05;4.28;;;2.80;99.90;;;;;;4971099;28;20398;-85
2023/01/14 06:52:34;;;;;;;23.48;4.22;;;2.80;99.90;;;;;;4953726;28;20031;-85
2023/01/14 06:54:59;;;;;;;29.20;5.15;;;2.80;99.90;;;;;;4954815;28;20121;-85
2023/01/14 06:57:25;;;;;;;29.00;3.83;;;2.80;99.90;;;;;;4970934;28;20067;-85
2023/01/14 06:59:52;;;;;;;22.92;3.70;;;2.80;99.90;;;;;;4954694;28;20034;-85
2023/01/14 07:02:18;;;;;;;30.70;3.72;;;2.80;99.90;;;;;;4954321;28;20031;-85
2023/01/14 07:04:43;;;;;;;28.70;5.50;;;2.80;99.90;;;;;;4954765;28;20037;-85
2023/01/14 07:07:10;;;;;;;30.90;4.72;;;2.80;99.90;;;;;;4970908;28;20108;-85
2023/01/14 07:09:36;;;;;;;28.33;4.25;;;2.80;99.90;;;;;;4970053;28;20623;-86
2023/01/14 07:12:02;;;;;;;21.17;4.50;;;2.80;99.90;;;;;;4954385;28;20061;-85
2023/01/14 07:14:29;;;;;;;29.58;4.07;;;2.70;99.90;;;;;;4955990;28;20035;-85
2023/01/14 07:16:55;;;;;;;30.50;4.57;;;2.80;99.90;;;;;;4955754;28;20045;-85
2023/01/14 07:19:21;;;;;;;16.70;3.60;;;2.80;99.90;;;;;;4971332;28;20027;-87
2023/01/14 07:21:47;;;;;;;27.80;4.53;;;2.80;99.90;;;;;;4955554;28;20027;-87
2023/01/14 07:24:13;;;;;;;26.90;4.07;;;2.80;99.90;;;;;;4956098;28;20019;-87
2023/01/14 07:26:38;;;;;;;24.45;4.18;;;2.80;99.90;;;;;;4955777;28;20136;-87
2023/01/14 07:29:04;;;;;;;29.15;4.25;;;2.80;99.90;;;;;;4955888;28;20043;-87
2023/01/14 07:31:29;;;;;;;24.08;5.07;;;2.80;99.90;;;;;;4955802;28;20031;-87
2023/01/14 07:33:55;;;;;;;21.52;4.63;;;2.80;99.90;;;;;;4955703;28;20041;-86
2023/01/14 07:36:21;;;;;;;28.58;5.53;;;2.70;99.90;;;;;;4955928;28;20065;-87
2023/01/14 07:38:46;;;;;;;26.95;4.43;;;2.80;99.90;;;;;;4955830;28;20022;-87
2023/01/14 07:41:18;;;;;;;21.45;3.53;;;2.70;99.90;;;;;;4955964;28;20066;-87
2023/01/14 07:43:47;;;;;;;;;;;2.80;99.90;;;;;;4956261;28;20034;-86
2023/01/14 07:46:14;;;;;;;18.05;3.58;;;2.80;99.90;;;;;;5056307;28;19975;-87
2023/01/14 07:48:41;;;;;;;17.77;4.28;;;2.80;99.90;;;;;;5073123;28;20443;-86
2023/01/14 07:51:08;;;;;;;20.27;3.40;;;2.80;99.90;;;;;;4955324;28;20031;-86
2023/01/14 07:53:37;;;;;;;13.05;3.08;;;2.80;99.90;;;;;;4957519;28;20035;-87
2023/01/14 07:56:04;;;;;;;25.83;3.53;;;2.80;99.90;;;;;;4955210;28;20081;-86
2023/01/14 07:58:30;;;;;;;19.58;4.38;;;2.90;99.90;;;;;;4954956;28;20031;-87
2023/01/14 08:00:57;;;;;;;17.85;4.15;;;2.90;99.90;;;;;;4954569;28;20080;-87
2023/01/14 08:03:24;;;;;;;13.88;3.65;;;2.90;99.90;;;;;;4971709;28;20425;-86
2023/01/14 08:05:51;;;;;;;26.65;5.68;;;2.90;99.90;;;;;;4971669;28;20046;-87
2023/01/14 08:08:18;;;;;;;44.22;12.77;;;3.00;99.90;;;;;;4955516;28;20550;-87
2023/01/14 08:10:44;;;;;;;49.28;16.05;;;3.00;99.90;;;;;;4955418;28;20065;-87
2023/01/14 08:13:13;;;;;;;36.20;9.25;;;3.10;99.90;;;;;;4955737;28;20031;-86
2023/01/14 08:15:39;;;;;;;22.20;4.47;;;3.10;99.90;;;;;;4955121;28;20057;-87
2023/01/14 08:18:05;;;;;;;34.70;8.02;;;3.10;99.90;;;;;;4955102;28;20035;-87
2023/01/14 08:20:31;;;;;;;32.70;8.95;;;3.10;99.90;;;;;;4955200;28;20022;-87
2023/01/14 08:23:09;;;;;;;25.25;6.70;;;3.10;99.90;;;;;;4954746;28;20031;-87
2023/01/14 08:25:34;;;;;;;23.10;4.85;;;3.10;99.90;;;;;;4970876;28;20045;-87
2023/01/14 08:28:00;;;;;;;25.88;6.03;;;3.10;99.90;;;;;;4955063;28;20031;-87
2023/01/14 08:30:26;;;;;;;25.52;5.95;;;3.10;99.90;;;;;;4954945;28;20035;-86
2023/01/14 08:32:51;;;;;;;21.63;5.15;;;3.20;99.90;;;;;;4955316;28;20031;-87
2023/01/14 08:35:17;;;;;;;28.05;6.65;;;3.20;99.90;;;;;;4970894;28;20031;-87
2023/01/14 08:37:43;;;;;;;30.73;7.85;;;3.20;99.90;;;;;;4954621;28;20539;-87
2023/01/14 08:40:09;;;;;;;22.80;6.95;;;3.20;99.90;;;;;;4954774;28;20042;-87
2023/01/14 08:42:35;;;;;;;28.88;6.65;;;3.20;99.90;;;;;;4954747;28;20046;-87
2023/01/14 08:45:00;;;;;;;30.95;6.72;;;3.30;99.90;;;;;;4955638;28;20030;-87
2023/01/14 08:47:28;;;;;;;24.65;4.72;;;3.30;99.90;;;;;;4955085;28;20037;-87
2023/01/14 08:49:54;;;;;;;26.27;6.53;;;3.30;99.90;;;;;;4955353;28;20359;-87
2023/01/14 08:52:20;;;;;;;25.85;6.93;;;3.30;99.90;;;;;;4956492;28;20137;-87
2023/01/14 08:54:45;;;;;;;33.80;8.15;;;3.40;99.90;;;;;;4973921;28;20031;-87
2023/01/14 08:57:11;;;;;;;24.40;4.25;;;3.40;99.90;;;;;;4973814;28;20038;-87
2023/01/14 08:59:38;;;;;;;29.27;7.97;;;3.50;99.90;;;;;;4957081;28;20501;-86
2023/01/14 09:02:04;;;;;;;26.58;6.40;;;3.50;99.90;;;;;;4972851;28;20421;-87
2023/01/14 09:04:30;;;;;;;26.30;6.28;;;3.50;99.90;;;;;;4957196;28;20088;-87
2023/01/14 09:17:59;;;;;;;60.72;20.75;;;3.50;99.90;;;;;;4972847;28;20053;-87
2023/01/14 09:20:30;;;;;;;55.65;24.17;;;3.60;99.90;;;;;;4957003;28;20035;-87
2023/01/14 09:22:56;;;;;;;44.45;17.98;;;3.50;99.90;;;;;;4956891;28;20039;-87
2023/01/14 09:25:22;;;;;;;20.10;7.97;;;3.60;99.90;;;;;;5057310;28;20043;-86
2023/01/14 09:27:47;;;;;;;32.63;7.25;;;3.60;99.90;;;;;;4972889;28;20038;-86
2023/01/14 09:30:13;;;;;;;26.55;7.20;;;3.60;99.90;;;;;;4973725;28;20030;-87
2023/01/14 09:32:39;;;;;;;31.00;6.50;;;3.60;99.90;;;;;;4956397;28;20089;-87
2023/01/14 09:35:07;;;;;;;52.00;14.65;;;3.60;99.90;;;;;;4955660;28;20491;-86
2023/01/14 09:37:33;;;;;;;50.05;17.55;;;3.60;99.90;;;;;;4956339;28;20062;-88
2023/01/14 09:40:00;;;;;;;57.00;22.60;;;3.70;99.90;;;;;;5073646;28;20441;-86
2023/01/14 09:42:39;;;;;;;49.25;15.52;;;3.70;99.90;;;;;;5073697;28;20058;-87
2023/01/14 09:45:24;;;;;;;33.25;9.43;;;3.70;99.90;;;;;;4973290;28;20057;-87
2023/01/14 09:47:51;;;;;;;55.20;17.90;;;3.70;99.90;;;;;;5056954;28;20030;-87
2023/01/14 09:50:27;;;;;;;39.08;11.35;;;3.80;99.90;;;;;;4956098;28;20457;-87
2023/01/14 09:53:22;;;;;;;44.30;13.40;;;3.80;99.90;;;;;;4972492;28;20031;-87
2023/01/14 09:56:07;;;;;;;30.58;8.50;;;3.80;99.90;;;;;;4972439;28;20035;-87
2023/01/14 09:59:07;;;;;;;38.35;12.70;;;3.90;99.90;;;;;;5074071;28;20031;-88
2023/01/14 10:02:01;;;;;;;37.83;9.07;;;3.90;99.90;;;;;;4978712;28;20043;-88
2023/01/14 10:04:55;;;;;;;31.00;8.82;;;3.90;99.90;;;;;;4954845;28;20151;-87
2023/01/14 10:07:22;;;;;;;19.65;4.85;;;4.00;99.90;;;;;;4956005;28;20054;-87
2023/01/14 10:09:58;;;;;;;17.25;5.50;;;4.10;99.90;;;;;;4956210;28;20035;-87
2023/01/14 10:12:33;;;;;;;21.77;5.53;;;4.10;99.90;;;;;;4972677;28;20031;-87
2023/01/14 10:15:01;;;;;;;27.17;6.10;;;4.20;99.90;;;;;;5073722;28;20030;-87
2023/01/14 10:17:33;;;;;;;21.55;8.55;;;4.10;99.90;;;;;;4956180;28;20038;-87
2023/01/14 10:20:08;;;;;;;22.35;4.70;;;4.20;99.90;;;;;;4955970;28;20038;-87
2023/01/14 10:22:39;;;;;;;21.17;4.72;;;4.20;99.90;;;;;;4971909;28;20081;-87
2023/01/14 10:25:14;;;;;;;17.17;4.53;;;4.30;99.90;;;;;;5073710;28;20081;-87
2023/01/14 10:27:43;;;;;;;28.85;4.80;;;4.40;99.90;;;;;;4972075;28;20430;-86
2023/01/14 10:30:33;;;;;;;23.65;5.32;;;4.50;99.90;;;;;;4956117;28;20386;-87
2023/01/14 10:33:02;;;;;;;22.52;4.15;;;4.60;99.90;;;;;;4960511;28;20045;-86
2023/01/14 10:35:33;;;;;;;13.57;4.55;;;4.70;99.90;;;;;;5073622;28;20084;-87
2023/01/14 10:37:59;;;;;;;22.75;4.07;;;4.90;99.90;;;;;;4956241;28;20038;-87
2023/01/14 10:40:26;;;;;;;21.33;5.30;;;5.00;99.90;;;;;;4972486;28;20030;-87
2023/01/14 10:42:54;;;;;;;15.23;4.32;;;5.00;99.90;;;;;;4955486;28;20027;-87
2023/01/14 10:45:20;;;;;;;15.00;4.43;;;4.90;99.90;;;;;;4955773;28;20042;-87
2023/01/14 10:47:47;;;;;;;12.95;4.38;;;4.90;99.90;;;;;;4956637;28;20031;-87
2023/01/14 10:50:27;;;;;;;16.40;4.20;;;4.90;99.90;;;;;;4956052;28;20382;-87
2023/01/14 10:52:53;;;;;;;25.42;5.30;;;4.90;99.90;;;;;;4971580;28;20047;-87
2023/01/14 10:55:24;;;;;;;23.88;4.35;;;4.90;99.90;;;;;;4955750;28;20084;-87
2023/01/14 10:58:11;;;;;;;24.48;4.43;;;4.90;99.90;;;;;;4971954;28;20030;-86
2023/01/14 11:00:49;;;;;;;27.90;4.40;;;4.90;99.90;;;;;;4955618;28;20127;-87
2023/01/14 11:03:25;;;;;;;14.93;4.10;;;5.00;99.90;;;;;;4955256;28;20053;-85
2023/01/14 11:06:08;;;;;;;16.30;4.18;;;4.90;99.90;;;;;;4955322;28;20037;-87
2023/01/14 11:08:36;;;;;;;15.20;4.15;;;5.00;99.90;;;;;;4955061;28;20031;-87
2023/01/14 11:11:07;;;;;;;13.57;3.58;;;5.00;99.90;;;;;;4955908;28;20030;-86
2023/01/14 11:13:42;;;;;;;21.60;4.97;;;5.00;99.90;;;;;;4955250;28;20051;-86
2023/01/14 11:16:27;;;;;;;16.42;3.70;;;5.00;99.90;;;;;;4954772;28;20104;-87
2023/01/14 11:19:11;;;;;;;12.98;3.35;;;5.00;99.90;;;;;;4971017;28;20110;-87
2023/01/14 11:21:47;;;;;;;21.73;3.78;;;5.00;99.90;;;;;;5055425;28;20129;-87
2023/01/14 11:24:31;;;;;;;19.92;4.20;;;5.10;99.90;;;;;;4971391;28;20470;-86
2023/01/14 11:27:04;;;;;;;24.02;4.40;;;5.10;99.90;;;;;;5055951;28;20034;-87
2023/01/14 11:29:36;;;;;;;15.50;3.53;;;5.20;99.90;;;;;;4955114;28;20126;-87
2023/01/14 11:32:11;;;;;;;12.50;3.97;;;5.20;99.90;;;;;;4955082;28;20061;-87
2023/01/14 11:34:50;;;;;;;16.83;4.00;;;5.30;99.90;;;;;;5072547;28;20031;-87
2023/01/14 11:37:23;;;;;;;16.45;4.13;;;5.40;99.90;;;;;;5072841;28;20039;-87
2023/01/14 11:39:56;;;;;;;23.45;4.13;;;5.60;99.90;;;;;;4972612;28;20101;-87
2023/01/14 11:42:33;;;;;;;15.73;3.40;;;5.70;99.90;;;;;;4954784;28;20130;-87
2023/01/14 11:45:10;;;;;;;19.63;4.03;;;5.80;99.90;;;;;;4956063;28;20031;-87
2023/01/14 11:47:55;;;;;;;13.07;3.70;;;5.90;99.90;;;;;;4955099;28;20037;-88
2023/01/14 11:50:27;;;;;;;16.25;6.65;;;5.90;99.90;;;;;;4955609;28;20125;-86
2023/01/14 11:53:06;;;;;;;21.27;8.38;;;5.90;99.90;;;;;;4955063;28;20081;-87
2023/01/14 11:55:36;;;;;;;17.63;5.00;;;5.90;99.90;;;;;;4954648;28;20031;-87
2023/01/14 11:58:27;;;;;;;17.45;5.68;;;5.80;99.90;;;;;;4954876;28;20034;-87
2023/01/14 12:00:54;;;;;;;;;;;5.80;99.90;;;;;;4955415;28;20085;-88
2023/01/14 12:03:35;;;;;;;10.50;3.75;;;5.80;99.90;;;;;;5055214;28;19975;-87
2023/01/14 12:06:06;;;;;;;11.50;3.53;;;5.80;99.90;;;;;;4954544;28;20035;-87
2023/01/14 12:08:35;;;;;;;10.75;3.20;;;5.80;99.90;;;;;;5072055;28;20035;-87
2023/01/14 12:11:03;;;;;;;14.93;4.20;;;5.70;99.90;;;;;;4954760;28;20038;-87
2023/01/14 12:16:49;;;;;;;13.73;3.85;;;5.80;99.90;;;;;;4971996;28;20035;-88
2023/01/14 12:19:18;;;;;;;12.57;3.80;;;5.70;99.90;;;;;;4970889;28;20054;-87
2023/01/14 12:21:51;;;;;;;14.05;3.00;;;5.70;99.90;;;;;;4954605;28;20042;-87
2023/01/14 12:24:35;;;;;;;10.75;3.15;;;5.60;99.90;;;;;;4970786;28;20035;-86
2023/01/14 12:27:02;;;;;;;10.05;2.67;;;5.60;99.90;;;;;;4955621;28;20042;-87
2023/01/14 12:29:42;;;;;;;17.60;4.18;;;5.60;99.90;;;;;;4957565;28;20039;-87
2023/01/14 12:32:21;;;;;;;8.95;3.53;;;5.60;99.90;;;;;;4974111;28;20073;-86
2023/01/14 12:34:59;;;;;;;14.20;3.35;;;5.60;99.90;;;;;;4958717;28;20108;-87
2023/01/14 12:37:38;;;;;;;10.65;3.00;;;5.60;99.90;;;;;;4959395;28;20092;-87
2023/01/14 12:46:08;;;;;;;12.82;3.50;;;5.60;99.90;;;;;;4974448;28;20038;-87
2023/01/14 12:48:34;;;;;;;10.70;3.30;;;5.60;99.90;;;;;;4974541;28;20170;-87
2023/01/14 12:51:18;;;;;;;23.50;4.80;;;5.60;99.90;;;;;;4958275;28;20059;-87
2023/01/14 12:53:45;;;;;;;14.18;3.60;;;5.60;99.90;;;;;;4958212;28;20500;-87
2023/01/14 12:56:49;;;;;;;13.15;3.75;;;5.60;99.90;;;;;;4957958;28;20084;-87
2023/01/14 12:59:36;;;;;;;18.38;3.85;;;5.60;99.90;;;;;;4963915;28;20096;-87
2023/01/14 13:02:07;;;;;;;26.88;3.90;;;5.60;99.90;;;;;;4957747;28;20032;-88
2023/01/14 13:04:44;;;;;;;19.73;4.47;;;5.60;99.90;;;;;;4957529;28;20031;-88
2023/01/14 13:07:20;;;;;;;14.27;4.50;;;5.60;99.90;;;;;;4973423;28;20037;-88
2023/01/14 13:09:55;;;;;;;17.75;6.00;;;5.60;99.90;;;;;;4973285;28;20054;-87
2023/01/14 13:12:28;;;;;;;12.30;4.20;;;5.60;99.90;;;;;;4957229;28;20026;-87
2023/01/14 13:14:57;;;;;;;15.82;4.03;;;5.60;99.90;;;;;;4956946;28;20042;-88
2023/01/14 13:17:39;;;;;;;12.18;3.33;;;5.70;99.90;;;;;;4957736;28;20116;-87
2023/01/14 13:20:35;;;;;;;18.23;4.50;;;5.60;99.90;;;;;;4974093;28;20039;-88
2023/01/14 13:23:04;;;;;;;15.23;4.05;;;5.60;99.90;;;;;;4971871;28;20133;-87
2023/01/14 13:25:37;;;;;;;11.85;4.10;;;5.60;99.90;;;;;;4957891;28;20043;-86
2023/01/14 13:28:11;;;;;;;20.33;6.15;;;5.70;99.90;;;;;;4957480;28;20243;-87
2023/01/14 13:30:58;;;;;;;21.75;6.88;;;5.70;99.90;;;;;;4957140;28;20070;-87
2023/01/14 13:33:37;;;;;;;18.80;7.25;;;5.70;99.90;;;;;;4956871;28;20100;-87
2023/01/14 13:36:06;;;;;;;16.00;8.38;;;5.70;99.90;;;;;;4957219;28;20031;-87
2023/01/14 13:38:33;;;;;;;21.52;7.00;;;5.80;99.90;;;;;;4956419;28;20030;-88
2023/01/14 13:41:07;;;;;;;13.07;4.85;;;5.80;99.90;;;;;;4956606;28;20031;-87
2023/01/14 13:43:38;;;;;;;10.85;3.60;;;5.80;99.90;;;;;;4971896;28;20083;-83
2023/01/14 13:46:06;;;;;;;15.43;6.25;;;5.70;99.90;;;;;;4955855;28;20038;-83
2023/01/14 13:48:38;;;;;;;11.93;5.38;;;5.70;99.90;;;;;;4955557;28;20078;-83